sensor_id;sensor_type;location;lat;lon;timestamp;P1;durP1;ratioP1;P2;durP2;ratioP2
7531;SDS011;3807;49.030;8.714;2024-03-17T00:00:21;9.23;;;5.13;;
7531;SDS011;3807;49.030;8.714;2024-03-17T00:02:47;5.73;;;4.47;;
7531;SDS011;3807;49.030;8.714;2024-03-17T00:05:13;9.73;;;4.27;;
7531;SDS011;3807;49.030;8.714;2024-03-17T00:07:39;12.83;;;4.80;;
7531;SDS011;3807;49.030;8.714;2024-03-17T00:10:05;6.70;;;4.30;;
7531;SDS011;3807;49.030;8.714;2024-03-17T00:12:32;5.60;;;4.07;;
7531;SDS011;3807;49.030;8.714;2024-03-17T00:14:58;5.73;;;4.47;;
7531;SDS011;3807;49.030;8.714;2024-03-17T00:17:23;9.00;;;4.17;;
7531;SDS011;3807;49.030;8.714;2024-03-17T00:19:48;6.37;;;4.23;;
7531;SDS011;3807;49.030;8.714;2024-03-17T00:22:14;6.90;;;4.27;;
7531;SDS011;3807;49.030;8.714;2024-03-17T00:24:40;5.67;;;4.43;;
7531;SDS011;3807;49.030;8.714;2024-03-17T00:27:07;6.13;;;4.47;;
7531;SDS011;3807;49.030;8.714;2024-03-17T00:29:32;6.37;;;4.17;;
7531;SDS011;3807;49.030;8.714;2024-03-17T00:31:58;5.53;;;4.37;;
7531;SDS011;3807;49.030;8.714;2024-03-17T00:34:24;6.97;;;4.10;;
7531;SDS011;3807;49.030;8.714;2024-03-17T00:36:49;6.90;;;4.13;;
7531;SDS011;3807;49.030;8.714;2024-03-17T00:39:16;7.27;;;4.10;;
7531;SDS011;3807;49.030;8.714;2024-03-17T00:41:43;7.10;;;4.37;;
7531;SDS011;3807;49.030;8.714;2024-03-17T00:44:09;7.17;;;4.27;;
7531;SDS011;3807;49.030;8.714;2024-03-17T00:46:34;5.43;;;4.27;;
7531;SDS011;3807;49.030;8.714;2024-03-17T00:49:00;9.27;;;4.37;;
7531;SDS011;3807;49.030;8.714;2024-03-17T00:51:25;7.57;;;3.70;;
7531;SDS011;3807;49.030;8.714;2024-03-17T00:53:51;6.60;;;3.50;;
7531;SDS011;3807;49.030;8.714;2024-03-17T00:56:16;6.07;;;4.27;;
7531;SDS011;3807;49.030;8.714;2024-03-17T00:58:42;8.50;;;3.83;;
7531;SDS011;3807;49.030;8.714;2024-03-17T01:01:09;5.00;;;3.70;;
7531;SDS011;3807;49.030;8.714;2024-03-17T01:03:35;6.67;;;4.00;;
7531;SDS011;3807;49.030;8.714;2024-03-17T01:06:02;6.30;;;3.73;;
7531;SDS011;3807;49.030;8.714;2024-03-17T01:08:29;4.90;;;3.43;;
7531;SDS011;3807;49.030;8.714;2024-03-17T01:10:55;6.83;;;3.73;;
7531;SDS011;3807;49.030;8.714;2024-03-17T01:13:20;8.80;;;3.60;;
7531;SDS011;3807;49.030;8.714;2024-03-17T01:15:45;5.53;;;3.73;;
7531;SDS011;3807;49.030;8.714;2024-03-17T01:18:16;6.37;;;3.67;;
7531;SDS011;3807;49.030;8.714;2024-03-17T01:20:42;11.80;;;3.93;;
7531;SDS011;3807;49.030;8.714;2024-03-17T01:23:07;5.00;;;3.20;;
7531;SDS011;3807;49.030;8.714;2024-03-17T01:25:33;4.50;;;3.40;;
7531;SDS011;3807;49.030;8.714;2024-03-17T01:28:02;4.40;;;3.10;;
7531;SDS011;3807;49.030;8.714;2024-03-17T01:30:28;6.67;;;4.50;;
7531;SDS011;3807;49.030;8.714;2024-03-17T01:32:53;8.40;;;3.73;;
7531;SDS011;3807;49.030;8.714;2024-03-17T01:35:19;6.10;;;4.10;;
7531;SDS011;3807;49.030;8.714;2024-03-17T01:37:45;6.77;;;4.23;;
7531;SDS011;3807;49.030;8.714;2024-03-17T01:40:10;4.27;;;3.87;;
7531;SDS011;3807;49.030;8.714;2024-03-17T01:42:40;8.47;;;3.77;;
7531;SDS011;3807;49.030;8.714;2024-03-17T01:45:25;4.33;;;3.17;;
7531;SDS011;3807;49.030;8.714;2024-03-17T01:47:53;4.70;;;3.10;;
7531;SDS011;3807;49.030;8.714;2024-03-17T01:50:22;4.00;;;3.50;;
7531;SDS011;3807;49.030;8.714;2024-03-17T01:52:51;5.13;;;3.40;;
7531;SDS011;3807;49.030;8.714;2024-03-17T01:55:18;4.37;;;3.73;;
7531;SDS011;3807;49.030;8.714;2024-03-17T01:57:44;6.00;;;3.67;;
7531;SDS011;3807;49.030;8.714;2024-03-17T02:00:10;5.13;;;3.53;;
7531;SDS011;3807;49.030;8.714;2024-03-17T02:02:37;4.50;;;3.37;;
7531;SDS011;3807;49.030;8.714;2024-03-17T02:05:03;6.70;;;3.30;;
7531;SDS011;3807;49.030;8.714;2024-03-17T02:07:28;3.87;;;3.30;;
7531;SDS011;3807;49.030;8.714;2024-03-17T02:09:56;4.30;;;2.90;;
7531;SDS011;3807;49.030;8.714;2024-03-17T02:12:22;4.97;;;3.20;;
7531;SDS011;3807;49.030;8.714;2024-03-17T02:14:48;4.60;;;3.60;;
7531;SDS011;3807;49.030;8.714;2024-03-17T02:17:13;4.60;;;2.70;;
7531;SDS011;3807;49.030;8.714;2024-03-17T02:19:39;4.20;;;3.03;;
7531;SDS011;3807;49.030;8.714;2024-03-17T02:22:09;5.97;;;3.33;;
7531;SDS011;3807;49.030;8.714;2024-03-17T02:24:38;4.97;;;3.30;;
7531;SDS011;3807;49.030;8.714;2024-03-17T02:27:04;4.47;;;3.40;;
7531;SDS011;3807;49.030;8.714;2024-03-17T02:29:29;4.87;;;3.53;;
7531;SDS011;3807;49.030;8.714;2024-03-17T02:31:55;6.37;;;3.10;;
7531;SDS011;3807;49.030;8.714;2024-03-17T02:34:20;6.00;;;3.67;;
7531;SDS011;3807;49.030;8.714;2024-03-17T02:36:46;3.97;;;3.07;;
7531;SDS011;3807;49.030;8.714;2024-03-17T02:39:11;6.03;;;3.50;;
7531;SDS011;3807;49.030;8.714;2024-03-17T02:42:15;6.17;;;3.07;;
7531;SDS011;3807;49.030;8.714;2024-03-17T02:44:41;4.30;;;3.37;;
7531;SDS011;3807;49.030;8.714;2024-03-17T02:47:06;6.87;;;3.20;;
7531;SDS011;3807;49.030;8.714;2024-03-17T02:49:35;7.97;;;3.60;;
7531;SDS011;3807;49.030;8.714;2024-03-17T02:52:09;5.07;;;3.73;;
7531;SDS011;3807;49.030;8.714;2024-03-17T02:54:35;4.40;;;3.40;;
7531;SDS011;3807;49.030;8.714;2024-03-17T02:57:02;4.63;;;2.83;;
7531;SDS011;3807;49.030;8.714;2024-03-17T02:59:28;5.27;;;3.00;;
7531;SDS011;3807;49.030;8.714;2024-03-17T03:01:53;4.17;;;3.30;;
7531;SDS011;3807;49.030;8.714;2024-03-17T03:04:19;4.97;;;3.30;;
7531;SDS011;3807;49.030;8.714;2024-03-17T03:06:45;7.27;;;3.73;;
7531;SDS011;3807;49.030;8.714;2024-03-17T03:09:10;3.27;;;2.93;;
7531;SDS011;3807;49.030;8.714;2024-03-17T03:11:42;4.63;;;3.17;;
7531;SDS011;3807;49.030;8.714;2024-03-17T03:14:07;5.17;;;3.10;;
7531;SDS011;3807;49.030;8.714;2024-03-17T03:16:33;2.93;;;2.63;;
7531;SDS011;3807;49.030;8.714;2024-03-17T03:18:59;3.80;;;3.23;;
7531;SDS011;3807;49.030;8.714;2024-03-17T03:21:25;4.13;;;3.67;;
7531;SDS011;3807;49.030;8.714;2024-03-17T03:23:50;3.93;;;3.23;;
7531;SDS011;3807;49.030;8.714;2024-03-17T03:26:16;4.37;;;2.97;;
7531;SDS011;3807;49.030;8.714;2024-03-17T03:28:43;6.27;;;3.53;;
7531;SDS011;3807;49.030;8.714;2024-03-17T03:31:11;5.37;;;3.33;;
7531;SDS011;3807;49.030;8.714;2024-03-17T03:33:42;3.47;;;3.17;;
7531;SDS011;3807;49.030;8.714;2024-03-17T03:36:11;5.27;;;3.43;;
7531;SDS011;3807;49.030;8.714;2024-03-17T03:38:37;4.30;;;3.23;;
7531;SDS011;3807;49.030;8.714;2024-03-17T03:41:10;4.60;;;3.60;;
7531;SDS011;3807;49.030;8.714;2024-03-17T03:43:37;3.90;;;3.43;;
7531;SDS011;3807;49.030;8.714;2024-03-17T03:46:03;6.53;;;3.57;;
7531;SDS011;3807;49.030;8.714;2024-03-17T03:48:29;4.30;;;2.90;;
7531;SDS011;3807;49.030;8.714;2024-03-17T03:50:55;6.97;;;3.60;;
7531;SDS011;3807;49.030;8.714;2024-03-17T03:53:20;4.73;;;3.57;;
7531;SDS011;3807;49.030;8.714;2024-03-17T03:55:46;7.80;;;4.17;;
7531;SDS011;3807;49.030;8.714;2024-03-17T03:58:11;4.60;;;3.47;;
7531;SDS011;3807;49.030;8.714;2024-03-17T04:00:37;4.10;;;3.20;;
7531;SDS011;3807;49.030;8.714;2024-03-17T04:03:04;5.73;;;3.57;;
7531;SDS011;3807;49.030;8.714;2024-03-17T04:05:29;5.87;;;3.43;;
7531;SDS011;3807;49.030;8.714;2024-03-17T04:07:55;4.37;;;3.50;;
7531;SDS011;3807;49.030;8.714;2024-03-17T04:10:20;3.63;;;3.10;;
7531;SDS011;3807;49.030;8.714;2024-03-17T04:12:46;4.43;;;3.23;;
7531;SDS011;3807;49.030;8.714;2024-03-17T04:15:12;4.97;;;3.00;;
7531;SDS011;3807;49.030;8.714;2024-03-17T04:17:39;4.53;;;3.17;;
7531;SDS011;3807;49.030;8.714;2024-03-17T04:20:05;4.73;;;3.00;;
7531;SDS011;3807;49.030;8.714;2024-03-17T04:22:33;3.47;;;3.00;;
7531;SDS011;3807;49.030;8.714;2024-03-17T04:24:59;3.43;;;2.80;;
7531;SDS011;3807;49.030;8.714;2024-03-17T04:27:24;3.53;;;3.17;;
7531;SDS011;3807;49.030;8.714;2024-03-17T04:29:54;6.47;;;3.73;;
7531;SDS011;3807;49.030;8.714;2024-03-17T04:32:20;5.83;;;3.30;;
7531;SDS011;3807;49.030;8.714;2024-03-17T04:34:46;10.47;;;3.70;;
7531;SDS011;3807;49.030;8.714;2024-03-17T04:37:12;5.97;;;3.60;;
7531;SDS011;3807;49.030;8.714;2024-03-17T04:39:38;4.30;;;3.37;;
7531;SDS011;3807;49.030;8.714;2024-03-17T04:42:08;5.53;;;3.53;;
7531;SDS011;3807;49.030;8.714;2024-03-17T04:44:34;3.87;;;2.93;;
7531;SDS011;3807;49.030;8.714;2024-03-17T04:46:59;5.30;;;3.93;;
7531;SDS011;3807;49.030;8.714;2024-03-17T04:49:25;4.10;;;3.70;;
7531;SDS011;3807;49.030;8.714;2024-03-17T04:51:50;5.83;;;4.63;;
7531;SDS011;3807;49.030;8.714;2024-03-17T04:54:15;7.97;;;5.23;;
7531;SDS011;3807;49.030;8.714;2024-03-17T04:56:41;8.83;;;5.10;;
7531;SDS011;3807;49.030;8.714;2024-03-17T04:59:06;5.37;;;4.60;;
7531;SDS011;3807;49.030;8.714;2024-03-17T05:01:32;5.77;;;4.50;;
7531;SDS011;3807;49.030;8.714;2024-03-17T05:04:01;5.73;;;3.73;;
7531;SDS011;3807;49.030;8.714;2024-03-17T05:06:28;5.60;;;3.77;;
7531;SDS011;3807;49.030;8.714;2024-03-17T05:08:53;4.80;;;4.10;;
7531;SDS011;3807;49.030;8.714;2024-03-17T05:11:19;5.27;;;3.90;;
7531;SDS011;3807;49.030;8.714;2024-03-17T05:13:45;6.13;;;4.77;;
7531;SDS011;3807;49.030;8.714;2024-03-17T05:16:10;5.47;;;3.90;;
7531;SDS011;3807;49.030;8.714;2024-03-17T05:18:36;6.40;;;4.67;;
7531;SDS011;3807;49.030;8.714;2024-03-17T05:21:04;6.33;;;4.83;;
7531;SDS011;3807;49.030;8.714;2024-03-17T05:23:31;7.50;;;5.67;;
7531;SDS011;3807;49.030;8.714;2024-03-17T05:25:59;7.53;;;5.37;;
7531;SDS011;3807;49.030;8.714;2024-03-17T05:28:25;8.87;;;6.30;;
7531;SDS011;3807;49.030;8.714;2024-03-17T05:30:52;7.47;;;5.23;;
7531;SDS011;3807;49.030;8.714;2024-03-17T05:33:18;8.07;;;5.20;;
7531;SDS011;3807;49.030;8.714;2024-03-17T05:35:59;7.00;;;4.47;;
7531;SDS011;3807;49.030;8.714;2024-03-17T05:38:27;6.37;;;5.07;;
7531;SDS011;3807;49.030;8.714;2024-03-17T05:43:20;7.33;;;5.53;;
7531;SDS011;3807;49.030;8.714;2024-03-17T05:45:46;10.13;;;5.93;;
7531;SDS011;3807;49.030;8.714;2024-03-17T05:48:11;6.73;;;5.20;;
7531;SDS011;3807;49.030;8.714;2024-03-17T05:50:37;7.10;;;5.33;;
7531;SDS011;3807;49.030;8.714;2024-03-17T05:53:04;6.33;;;5.07;;
7531;SDS011;3807;49.030;8.714;2024-03-17T05:55:30;6.63;;;5.07;;
7531;SDS011;3807;49.030;8.714;2024-03-17T05:57:55;6.70;;;5.70;;
7531;SDS011;3807;49.030;8.714;2024-03-17T06:00:20;7.40;;;5.73;;
7531;SDS011;3807;49.030;8.714;2024-03-17T06:02:46;7.03;;;5.33;;
7531;SDS011;3807;49.030;8.714;2024-03-17T06:05:12;6.73;;;4.93;;
7531;SDS011;3807;49.030;8.714;2024-03-17T06:07:39;6.50;;;5.13;;
7531;SDS011;3807;49.030;8.714;2024-03-17T06:10:04;6.23;;;4.90;;
7531;SDS011;3807;49.030;8.714;2024-03-17T06:12:30;7.57;;;5.30;;
7531;SDS011;3807;49.030;8.714;2024-03-17T06:14:56;6.27;;;5.23;;
7531;SDS011;3807;49.030;8.714;2024-03-17T06:17:21;7.47;;;5.43;;
7531;SDS011;3807;49.030;8.714;2024-03-17T06:19:47;8.13;;;5.07;;
7531;SDS011;3807;49.030;8.714;2024-03-17T06:22:12;6.23;;;5.10;;
7531;SDS011;3807;49.030;8.714;2024-03-17T06:24:37;6.57;;;5.07;;
7531;SDS011;3807;49.030;8.714;2024-03-17T06:27:03;6.37;;;5.03;;
7531;SDS011;3807;49.030;8.714;2024-03-17T06:29:28;8.60;;;5.43;;
7531;SDS011;3807;49.030;8.714;2024-03-17T06:31:54;6.57;;;4.97;;
7531;SDS011;3807;49.030;8.714;2024-03-17T06:34:19;6.10;;;4.80;;
7531;SDS011;3807;49.030;8.714;2024-03-17T06:36:47;5.37;;;4.73;;
7531;SDS011;3807;49.030;8.714;2024-03-17T06:39:13;5.50;;;4.60;;
7531;SDS011;3807;49.030;8.714;2024-03-17T06:41:40;8.63;;;5.10;;
7531;SDS011;3807;49.030;8.714;2024-03-17T06:44:07;6.07;;;4.97;;
7531;SDS011;3807;49.030;8.714;2024-03-17T06:46:32;7.10;;;5.30;;
7531;SDS011;3807;49.030;8.714;2024-03-17T06:48:57;6.40;;;5.37;;
7531;SDS011;3807;49.030;8.714;2024-03-17T06:51:24;7.70;;;5.40;;
7531;SDS011;3807;49.030;8.714;2024-03-17T06:53:50;9.13;;;5.70;;
7531;SDS011;3807;49.030;8.714;2024-03-17T06:56:15;7.43;;;5.53;;
7531;SDS011;3807;49.030;8.714;2024-03-17T06:58:40;9.27;;;6.43;;
7531;SDS011;3807;49.030;8.714;2024-03-17T07:01:06;8.10;;;6.77;;
7531;SDS011;3807;49.030;8.714;2024-03-17T07:03:32;10.70;;;6.67;;
7531;SDS011;3807;49.030;8.714;2024-03-17T07:06:01;9.93;;;6.80;;
7531;SDS011;3807;49.030;8.714;2024-03-17T07:08:28;9.00;;;6.60;;
7531;SDS011;3807;49.030;8.714;2024-03-17T07:10:58;8.53;;;6.77;;
7531;SDS011;3807;49.030;8.714;2024-03-17T07:13:25;8.87;;;6.90;;
7531;SDS011;3807;49.030;8.714;2024-03-17T07:15:50;9.87;;;6.57;;
7531;SDS011;3807;49.030;8.714;2024-03-17T07:18:15;8.20;;;6.70;;
7531;SDS011;3807;49.030;8.714;2024-03-17T07:20:41;8.83;;;6.90;;
7531;SDS011;3807;49.030;8.714;2024-03-17T07:23:06;10.23;;;7.93;;
7531;SDS011;3807;49.030;8.714;2024-03-17T07:25:32;10.27;;;7.63;;
7531;SDS011;3807;49.030;8.714;2024-03-17T07:27:57;11.07;;;7.40;;
7531;SDS011;3807;49.030;8.714;2024-03-17T07:30:23;10.83;;;7.90;;
7531;SDS011;3807;49.030;8.714;2024-03-17T07:32:48;12.83;;;7.63;;
7531;SDS011;3807;49.030;8.714;2024-03-17T07:35:13;9.97;;;6.90;;
7531;SDS011;3807;49.030;8.714;2024-03-17T07:37:39;9.17;;;6.70;;
7531;SDS011;3807;49.030;8.714;2024-03-17T07:40:05;8.47;;;6.17;;
7531;SDS011;3807;49.030;8.714;2024-03-17T07:42:35;9.17;;;6.93;;
7531;SDS011;3807;49.030;8.714;2024-03-17T07:45:01;10.37;;;7.53;;
7531;SDS011;3807;49.030;8.714;2024-03-17T07:47:27;9.57;;;6.83;;
7531;SDS011;3807;49.030;8.714;2024-03-17T07:50:00;10.30;;;7.43;;
7531;SDS011;3807;49.030;8.714;2024-03-17T07:52:29;10.37;;;6.57;;
7531;SDS011;3807;49.030;8.714;2024-03-17T07:54:54;13.47;;;8.07;;
7531;SDS011;3807;49.030;8.714;2024-03-17T07:57:19;11.93;;;7.27;;
7531;SDS011;3807;49.030;8.714;2024-03-17T07:59:45;10.23;;;7.63;;
7531;SDS011;3807;49.030;8.714;2024-03-17T08:02:11;10.93;;;8.00;;
7531;SDS011;3807;49.030;8.714;2024-03-17T08:04:37;9.87;;;7.07;;
7531;SDS011;3807;49.030;8.714;2024-03-17T08:07:04;10.67;;;7.90;;
7531;SDS011;3807;49.030;8.714;2024-03-17T08:09:29;10.10;;;7.77;;
7531;SDS011;3807;49.030;8.714;2024-03-17T08:11:55;9.43;;;6.93;;
7531;SDS011;3807;49.030;8.714;2024-03-17T08:14:20;9.90;;;6.57;;
7531;SDS011;3807;49.030;8.714;2024-03-17T08:16:46;9.53;;;6.90;;
7531;SDS011;3807;49.030;8.714;2024-03-17T08:19:11;11.87;;;8.20;;
7531;SDS011;3807;49.030;8.714;2024-03-17T08:21:36;11.33;;;7.73;;
7531;SDS011;3807;49.030;8.714;2024-03-17T08:24:02;11.03;;;8.63;;
7531;SDS011;3807;49.030;8.714;2024-03-17T08:26:28;11.03;;;7.97;;
7531;SDS011;3807;49.030;8.714;2024-03-17T08:28:53;12.43;;;8.10;;
7531;SDS011;3807;49.030;8.714;2024-03-17T08:31:19;11.20;;;7.50;;
7531;SDS011;3807;49.030;8.714;2024-03-17T08:33:44;8.60;;;6.07;;
7531;SDS011;3807;49.030;8.714;2024-03-17T08:36:09;10.03;;;7.63;;
7531;SDS011;3807;49.030;8.714;2024-03-17T08:38:36;10.97;;;7.87;;
7531;SDS011;3807;49.030;8.714;2024-03-17T08:41:06;9.57;;;6.97;;
7531;SDS011;3807;49.030;8.714;2024-03-17T08:43:32;10.90;;;8.13;;
7531;SDS011;3807;49.030;8.714;2024-03-17T08:45:59;10.97;;;7.80;;
7531;SDS011;3807;49.030;8.714;2024-03-17T08:48:28;9.20;;;7.13;;
7531;SDS011;3807;49.030;8.714;2024-03-17T08:50:55;10.00;;;7.33;;
7531;SDS011;3807;49.030;8.714;2024-03-17T08:53:21;10.70;;;7.77;;
7531;SDS011;3807;49.030;8.714;2024-03-17T08:55:48;11.70;;;8.07;;
7531;SDS011;3807;49.030;8.714;2024-03-17T08:58:13;10.13;;;7.10;;
7531;SDS011;3807;49.030;8.714;2024-03-17T09:00:39;13.43;;;8.50;;
7531;SDS011;3807;49.030;8.714;2024-03-17T09:03:06;12.53;;;8.97;;
7531;SDS011;3807;49.030;8.714;2024-03-17T09:05:35;13.70;;;9.03;;
7531;SDS011;3807;49.030;8.714;2024-03-17T09:08:01;12.57;;;8.60;;
7531;SDS011;3807;49.030;8.714;2024-03-17T09:10:26;13.77;;;8.77;;
7531;SDS011;3807;49.030;8.714;2024-03-17T09:12:51;11.50;;;8.10;;
7531;SDS011;3807;49.030;8.714;2024-03-17T09:15:17;13.37;;;8.60;;
7531;SDS011;3807;49.030;8.714;2024-03-17T09:17:42;10.47;;;7.53;;
7531;SDS011;3807;49.030;8.714;2024-03-17T09:20:09;12.47;;;8.73;;
7531;SDS011;3807;49.030;8.714;2024-03-17T09:22:39;14.30;;;8.83;;
7531;SDS011;3807;49.030;8.714;2024-03-17T09:25:05;14.23;;;9.37;;
7531;SDS011;3807;49.030;8.714;2024-03-17T09:27:32;13.00;;;8.00;;
7531;SDS011;3807;49.030;8.714;2024-03-17T09:29:59;9.37;;;7.07;;
7531;SDS011;3807;49.030;8.714;2024-03-17T09:32:25;10.33;;;7.37;;
7531;SDS011;3807;49.030;8.714;2024-03-17T09:34:50;10.27;;;8.23;;
7531;SDS011;3807;49.030;8.714;2024-03-17T09:37:15;10.27;;;7.97;;
7531;SDS011;3807;49.030;8.714;2024-03-17T09:39:41;12.83;;;8.37;;
7531;SDS011;3807;49.030;8.714;2024-03-17T09:42:10;11.93;;;7.93;;
7531;SDS011;3807;49.030;8.714;2024-03-17T09:44:42;9.77;;;7.17;;
7531;SDS011;3807;49.030;8.714;2024-03-17T09:47:10;11.47;;;8.10;;
7531;SDS011;3807;49.030;8.714;2024-03-17T09:49:43;9.97;;;7.60;;
7531;SDS011;3807;49.030;8.714;2024-03-17T09:52:09;13.10;;;7.90;;
7531;SDS011;3807;49.030;8.714;2024-03-17T09:54:53;12.03;;;8.67;;
7531;SDS011;3807;49.030;8.714;2024-03-17T09:57:23;10.67;;;6.93;;
7531;SDS011;3807;49.030;8.714;2024-03-17T09:59:53;12.00;;;7.30;;
7531;SDS011;3807;49.030;8.714;2024-03-17T10:02:21;7.90;;;6.27;;
7531;SDS011;3807;49.030;8.714;2024-03-17T10:04:47;9.67;;;6.83;;
7531;SDS011;3807;49.030;8.714;2024-03-17T10:07:13;8.63;;;6.53;;
7531;SDS011;3807;49.030;8.714;2024-03-17T10:09:42;11.00;;;6.87;;
7531;SDS011;3807;49.030;8.714;2024-03-17T10:12:28;10.10;;;7.73;;
7531;SDS011;3807;49.030;8.714;2024-03-17T10:15:01;11.63;;;8.50;;
7531;SDS011;3807;49.030;8.714;2024-03-17T10:17:33;12.73;;;8.23;;
7531;SDS011;3807;49.030;8.714;2024-03-17T10:20:12;14.33;;;8.33;;
7531;SDS011;3807;49.030;8.714;2024-03-17T10:25:26;13.20;;;8.30;;
7531;SDS011;3807;49.030;8.714;2024-03-17T10:27:52;10.63;;;8.33;;
7531;SDS011;3807;49.030;8.714;2024-03-17T10:30:19;10.23;;;7.80;;
7531;SDS011;3807;49.030;8.714;2024-03-17T10:32:46;14.23;;;8.17;;
7531;SDS011;3807;49.030;8.714;2024-03-17T10:35:27;9.57;;;7.47;;
7531;SDS011;3807;49.030;8.714;2024-03-17T10:37:58;11.43;;;7.30;;
7531;SDS011;3807;49.030;8.714;2024-03-17T10:40:28;14.07;;;7.77;;
7531;SDS011;3807;49.030;8.714;2024-03-17T10:42:55;7.57;;;6.03;;
7531;SDS011;3807;49.030;8.714;2024-03-17T10:45:22;10.47;;;6.80;;
7531;SDS011;3807;49.030;8.714;2024-03-17T10:47:48;8.67;;;6.23;;
7531;SDS011;3807;49.030;8.714;2024-03-17T10:50:21;9.37;;;6.23;;
7531;SDS011;3807;49.030;8.714;2024-03-17T10:52:51;8.87;;;5.93;;
7531;SDS011;3807;49.030;8.714;2024-03-17T10:55:24;13.47;;;6.97;;
7531;SDS011;3807;49.030;8.714;2024-03-17T10:57:51;10.43;;;7.07;;
7531;SDS011;3807;49.030;8.714;2024-03-17T11:00:19;9.80;;;5.73;;
7531;SDS011;3807;49.030;8.714;2024-03-17T11:02:47;8.37;;;5.60;;
7531;SDS011;3807;49.030;8.714;2024-03-17T11:05:21;8.27;;;5.03;;
7531;SDS011;3807;49.030;8.714;2024-03-17T11:07:49;6.50;;;4.70;;
7531;SDS011;3807;49.030;8.714;2024-03-17T11:10:29;5.90;;;4.43;;
7531;SDS011;3807;49.030;8.714;2024-03-17T11:12:57;6.80;;;4.70;;
7531;SDS011;3807;49.030;8.714;2024-03-17T11:20:35;7.47;;;4.60;;
7531;SDS011;3807;49.030;8.714;2024-03-17T11:23:02;8.03;;;4.53;;
7531;SDS011;3807;49.030;8.714;2024-03-17T11:28:01;5.80;;;4.40;;
7531;SDS011;3807;49.030;8.714;2024-03-17T11:30:42;4.73;;;4.20;;
7531;SDS011;3807;49.030;8.714;2024-03-17T11:41:33;6.83;;;4.77;;
7531;SDS011;3807;49.030;8.714;2024-03-17T11:46:45;5.60;;;4.30;;
7531;SDS011;3807;49.030;8.714;2024-03-17T11:49:35;6.13;;;4.20;;
7531;SDS011;3807;49.030;8.714;2024-03-17T11:52:08;7.63;;;4.10;;
7531;SDS011;3807;49.030;8.714;2024-03-17T11:54:38;10.97;;;4.30;;
7531;SDS011;3807;49.030;8.714;2024-03-17T11:57:08;5.17;;;3.73;;
7531;SDS011;3807;49.030;8.714;2024-03-17T11:59:35;11.90;;;7.37;;
7531;SDS011;3807;49.030;8.714;2024-03-17T12:02:02;6.23;;;5.13;;
7531;SDS011;3807;49.030;8.714;2024-03-17T12:04:27;6.03;;;4.30;;
7531;SDS011;3807;49.030;8.714;2024-03-17T12:06:57;7.13;;;3.87;;
7531;SDS011;3807;49.030;8.714;2024-03-17T12:09:25;5.43;;;4.20;;
7531;SDS011;3807;49.030;8.714;2024-03-17T12:12:05;7.93;;;4.33;;
7531;SDS011;3807;49.030;8.714;2024-03-17T12:14:33;6.87;;;4.03;;
7531;SDS011;3807;49.030;8.714;2024-03-17T12:17:07;5.10;;;3.63;;
7531;SDS011;3807;49.030;8.714;2024-03-17T12:19:34;5.63;;;4.20;;
7531;SDS011;3807;49.030;8.714;2024-03-17T12:22:01;5.33;;;3.97;;
7531;SDS011;3807;49.030;8.714;2024-03-17T12:24:28;4.63;;;3.70;;
7531;SDS011;3807;49.030;8.714;2024-03-17T12:26:55;5.33;;;4.00;;
7531;SDS011;3807;49.030;8.714;2024-03-17T12:29:38;6.40;;;3.73;;
7531;SDS011;3807;49.030;8.714;2024-03-17T12:34:35;4.73;;;3.67;;
7531;SDS011;3807;49.030;8.714;2024-03-17T12:37:01;5.07;;;3.23;;
7531;SDS011;3807;49.030;8.714;2024-03-17T12:42:08;3.97;;;3.23;;
7531;SDS011;3807;49.030;8.714;2024-03-17T12:44:37;5.53;;;4.10;;
7531;SDS011;3807;49.030;8.714;2024-03-17T12:47:34;5.87;;;4.57;;
7531;SDS011;3807;49.030;8.714;2024-03-17T12:50:00;6.17;;;3.83;;
7531;SDS011;3807;49.030;8.714;2024-03-17T12:52:33;4.47;;;3.33;;
7531;SDS011;3807;49.030;8.714;2024-03-17T12:57:45;4.97;;;3.47;;
7531;SDS011;3807;49.030;8.714;2024-03-17T13:00:29;5.80;;;3.70;;
7531;SDS011;3807;49.030;8.714;2024-03-17T13:02:58;6.30;;;3.60;;
7531;SDS011;3807;49.030;8.714;2024-03-17T13:05:24;5.43;;;4.03;;
7531;SDS011;3807;49.030;8.714;2024-03-17T13:07:50;7.47;;;3.60;;
7531;SDS011;3807;49.030;8.714;2024-03-17T13:10:16;7.27;;;3.60;;
7531;SDS011;3807;49.030;8.714;2024-03-17T13:12:44;5.80;;;3.57;;
7531;SDS011;3807;49.030;8.714;2024-03-17T13:15:13;6.67;;;3.67;;
7531;SDS011;3807;49.030;8.714;2024-03-17T13:17:40;5.80;;;3.33;;
7531;SDS011;3807;49.030;8.714;2024-03-17T13:20:07;5.10;;;3.77;;
7531;SDS011;3807;49.030;8.714;2024-03-17T13:22:37;7.70;;;3.77;;
7531;SDS011;3807;49.030;8.714;2024-03-17T13:25:05;8.20;;;3.60;;
7531;SDS011;3807;49.030;8.714;2024-03-17T13:27:31;4.23;;;3.10;;
7531;SDS011;3807;49.030;8.714;2024-03-17T13:29:56;5.13;;;3.13;;
7531;SDS011;3807;49.030;8.714;2024-03-17T13:32:22;5.23;;;3.67;;
7531;SDS011;3807;49.030;8.714;2024-03-17T13:34:47;5.70;;;3.30;;
7531;SDS011;3807;49.030;8.714;2024-03-17T13:37:12;5.07;;;3.17;;
7531;SDS011;3807;49.030;8.714;2024-03-17T13:39:38;4.73;;;3.73;;
7531;SDS011;3807;49.030;8.714;2024-03-17T13:42:03;4.70;;;3.17;;
7531;SDS011;3807;49.030;8.714;2024-03-17T13:44:29;4.83;;;3.60;;
7531;SDS011;3807;49.030;8.714;2024-03-17T13:46:55;5.73;;;3.50;;
7531;SDS011;3807;49.030;8.714;2024-03-17T13:49:22;3.20;;;2.83;;
7531;SDS011;3807;49.030;8.714;2024-03-17T13:51:47;4.23;;;3.13;;
7531;SDS011;3807;49.030;8.714;2024-03-17T13:54:13;4.70;;;3.33;;
7531;SDS011;3807;49.030;8.714;2024-03-17T13:56:38;3.93;;;3.00;;
7531;SDS011;3807;49.030;8.714;2024-03-17T13:59:03;6.17;;;3.70;;
7531;SDS011;3807;49.030;8.714;2024-03-17T14:01:29;4.53;;;3.60;;
7531;SDS011;3807;49.030;8.714;2024-03-17T14:03:54;7.07;;;3.80;;
7531;SDS011;3807;49.030;8.714;2024-03-17T14:06:20;7.37;;;3.90;;
7531;SDS011;3807;49.030;8.714;2024-03-17T14:08:45;5.20;;;3.40;;
7531;SDS011;3807;49.030;8.714;2024-03-17T14:11:10;7.07;;;3.37;;
7531;SDS011;3807;49.030;8.714;2024-03-17T14:13:35;4.63;;;3.17;;
7531;SDS011;3807;49.030;8.714;2024-03-17T14:16:01;5.13;;;3.27;;
7531;SDS011;3807;49.030;8.714;2024-03-17T14:18:26;4.00;;;3.20;;
7531;SDS011;3807;49.030;8.714;2024-03-17T14:20:52;5.33;;;3.43;;
7531;SDS011;3807;49.030;8.714;2024-03-17T14:23:17;5.27;;;3.40;;
7531;SDS011;3807;49.030;8.714;2024-03-17T14:25:42;5.57;;;3.87;;
7531;SDS011;3807;49.030;8.714;2024-03-17T14:28:07;4.77;;;3.60;;
7531;SDS011;3807;49.030;8.714;2024-03-17T14:30:34;4.03;;;3.43;;
7531;SDS011;3807;49.030;8.714;2024-03-17T14:32:59;3.50;;;3.20;;
7531;SDS011;3807;49.030;8.714;2024-03-17T14:35:24;6.03;;;3.50;;
7531;SDS011;3807;49.030;8.714;2024-03-17T14:37:51;3.60;;;3.10;;
7531;SDS011;3807;49.030;8.714;2024-03-17T14:40:18;5.77;;;3.37;;
7531;SDS011;3807;49.030;8.714;2024-03-17T14:42:52;5.00;;;2.70;;
7531;SDS011;3807;49.030;8.714;2024-03-17T14:45:18;4.27;;;3.17;;
7531;SDS011;3807;49.030;8.714;2024-03-17T14:47:44;4.43;;;2.97;;
7531;SDS011;3807;49.030;8.714;2024-03-17T14:50:10;4.37;;;3.20;;
7531;SDS011;3807;49.030;8.714;2024-03-17T14:52:41;6.47;;;3.47;;
7531;SDS011;3807;49.030;8.714;2024-03-17T14:55:07;4.07;;;3.40;;
7531;SDS011;3807;49.030;8.714;2024-03-17T14:57:34;6.27;;;3.30;;
7531;SDS011;3807;49.030;8.714;2024-03-17T15:00:00;3.73;;;3.30;;
7531;SDS011;3807;49.030;8.714;2024-03-17T15:02:26;7.77;;;3.30;;
7531;SDS011;3807;49.030;8.714;2024-03-17T15:04:51;3.33;;;2.80;;
7531;SDS011;3807;49.030;8.714;2024-03-17T15:07:17;3.63;;;3.03;;
7531;SDS011;3807;49.030;8.714;2024-03-17T15:09:43;4.73;;;3.20;;
7531;SDS011;3807;49.030;8.714;2024-03-17T15:12:08;5.47;;;3.40;;
7531;SDS011;3807;49.030;8.714;2024-03-17T15:14:34;4.63;;;2.70;;
7531;SDS011;3807;49.030;8.714;2024-03-17T15:16:59;4.73;;;3.43;;
7531;SDS011;3807;49.030;8.714;2024-03-17T15:19:25;4.80;;;3.50;;
7531;SDS011;3807;49.030;8.714;2024-03-17T15:21:50;6.57;;;3.37;;
7531;SDS011;3807;49.030;8.714;2024-03-17T15:24:16;4.77;;;2.80;;
7531;SDS011;3807;49.030;8.714;2024-03-17T15:26:41;4.17;;;2.67;;
7531;SDS011;3807;49.030;8.714;2024-03-17T15:29:08;5.83;;;2.80;;
7531;SDS011;3807;49.030;8.714;2024-03-17T15:31:33;3.80;;;2.73;;
7531;SDS011;3807;49.030;8.714;2024-03-17T15:33:58;4.77;;;2.90;;
7531;SDS011;3807;49.030;8.714;2024-03-17T15:36:24;3.63;;;2.60;;
7531;SDS011;3807;49.030;8.714;2024-03-17T15:38:50;2.50;;;2.17;;
7531;SDS011;3807;49.030;8.714;2024-03-17T15:41:15;4.00;;;2.33;;
7531;SDS011;3807;49.030;8.714;2024-03-17T15:43:41;3.10;;;2.13;;